createdAt,value
2019-05-02T00:00:57.974Z,93.90
2019-05-02T00:03:29.648Z,93.30
2019-05-02T00:06:02.955Z,93.20
2019-05-02T00:08:33.181Z,92.80
2019-05-02T00:11:05.607Z,92.50
2019-05-02T00:13:35.765Z,92.80
2019-05-02T00:16:09.191Z,93.40
2019-05-02T00:18:39.057Z,93.50
2019-05-02T00:21:09.475Z,93.20
2019-05-02T00:23:39.781Z,94.10
2019-05-02T00:26:10.207Z,93.20
2019-05-02T00:28:43.021Z,92.60
2019-05-02T00:31:12.869Z,92.60
2019-05-02T00:33:42.995Z,92.80
2019-05-02T00:36:13.231Z,93.20
2019-05-02T00:38:46.401Z,93.60
2019-05-02T00:41:16.641Z,93.30
2019-05-02T00:43:46.801Z,93.40
2019-05-02T00:46:17.873Z,93.30
2019-05-02T00:48:54.072Z,93.70
2019-05-02T00:51:26.767Z,93.90
2019-05-02T00:53:55.924Z,94.20
2019-05-02T00:56:26.102Z,94.30
2019-05-02T00:58:56.311Z,94.90
2019-05-02T01:01:29.590Z,94.60
2019-05-02T01:04:04.205Z,94.80
2019-05-02T01:06:34.446Z,95.10
2019-05-02T01:09:10.963Z,94.50
2019-05-02T01:11:39.074Z,93.90
2019-05-02T01:14:09.216Z,94.20
2019-05-02T01:16:39.370Z,94.40
2019-05-02T01:19:12.095Z,94.50
2019-05-02T01:21:41.462Z,94.70
2019-05-02T01:24:11.755Z,94.80
2019-05-02T01:26:43.553Z,95.10
2019-05-02T01:29:15.348Z,94.80
2019-05-02T01:32:01.938Z,94.80
2019-05-02T01:34:42.430Z,95.10
2019-05-02T01:37:23.434Z,95.40
2019-05-02T01:39:53.615Z,95.70
2019-05-02T01:42:23.766Z,96.10
2019-05-02T01:44:54.091Z,95.60
2019-05-02T01:47:24.245Z,95.50
2019-05-02T01:49:57.316Z,94.60
2019-05-02T01:52:27.177Z,94.70
2019-05-02T01:54:57.480Z,95.20
2019-05-02T01:57:27.715Z,96.20
2019-05-02T01:59:58.952Z,96.70
2019-05-02T02:02:32.755Z,97.10
2019-05-02T02:05:00.892Z,97.80
2019-05-02T02:07:31.145Z,98.00
2019-05-02T02:10:01.218Z,98.00
2019-05-02T02:12:31.723Z,98.20
2019-05-02T02:15:01.906Z,98.30
2019-05-02T02:17:33.867Z,98.50
2019-05-02T02:20:09.738Z,98.20
2019-05-02T02:22:51.025Z,98.40
2019-05-02T02:25:38.302Z,98.60
2019-05-02T02:28:08.617Z,98.60
2019-05-02T02:30:38.938Z,98.70
2019-05-02T02:33:09.858Z,98.90
2019-05-02T02:35:49.430Z,99.10
2019-05-02T02:38:12.027Z,99.30
2019-05-02T02:40:45.105Z,99.50
2019-05-02T02:43:32.954Z,99.70
2019-05-02T02:45:51.767Z,99.60
2019-05-02T02:48:21.790Z,99.60
2019-05-02T02:50:51.878Z,99.90
2019-05-02T02:53:30.716Z,99.90
2019-05-02T02:56:06.725Z,99.90
2019-05-02T02:58:45.657Z,99.90
2019-05-02T03:01:09.006Z,99.80
2019-05-02T03:03:39.252Z,99.80
2019-05-02T03:06:09.443Z,99.90
2019-05-02T03:08:46.307Z,99.90
2019-05-02T03:11:22.388Z,99.90
2019-05-02T03:13:52.511Z,99.90
2019-05-02T03:16:22.755Z,99.90
2019-05-02T03:18:53.006Z,99.90
2019-05-02T03:21:23.156Z,99.90
2019-05-02T03:24:01.549Z,99.90
2019-05-02T03:26:25.182Z,99.90
2019-05-02T03:28:58.683Z,99.90
2019-05-02T03:31:30.350Z,99.90
2019-05-02T03:34:00.468Z,99.90
2019-05-02T03:36:36.433Z,99.90
2019-05-02T03:39:13.428Z,99.90
2019-05-02T03:41:36.070Z,99.90
2019-05-02T03:44:11.114Z,99.90
2019-05-02T03:46:40.019Z,99.90
2019-05-02T03:49:10.201Z,99.90
2019-05-02T03:51:40.486Z,99.90
2019-05-02T03:54:10.712Z,99.90
2019-05-02T03:56:44.772Z,99.90
2019-05-02T03:59:12.664Z,99.90
2019-05-02T04:01:43.223Z,99.90
2019-05-02T04:04:14.098Z,99.90
2019-05-02T04:06:45.215Z,99.90
2019-05-02T04:09:42.097Z,99.90
2019-05-02T04:12:11.414Z,99.90
2019-05-02T04:14:39.766Z,99.90
2019-05-02T04:17:11.210Z,99.90
2019-05-02T04:19:41.407Z,99.90
2019-05-02T04:22:12.338Z,99.90
2019-05-02T04:24:51.628Z,99.90
2019-05-02T04:27:14.548Z,99.90
2019-05-02T04:29:44.751Z,99.90
2019-05-02T04:32:14.945Z,99.90
2019-05-02T04:34:48.957Z,99.90
2019-05-02T04:37:16.939Z,99.90
2019-05-02T04:39:49.088Z,99.90
2019-05-02T04:42:22.879Z,99.90
2019-05-02T04:45:11.633Z,99.90
2019-05-02T04:47:22.522Z,99.60
2019-05-02T04:49:52.824Z,98.80
2019-05-02T04:52:23.008Z,99.10
2019-05-02T04:54:53.166Z,99.00
2019-05-02T04:57:27.184Z,97.90
2019-05-02T05:00:02.459Z,98.00
2019-05-02T05:02:34.640Z,97.30
2019-05-02T05:04:58.746Z,95.90
2019-05-02T05:07:31.220Z,93.50
2019-05-02T05:10:02.988Z,91.00
2019-05-02T05:12:37.407Z,86.80
2019-05-02T05:15:07.840Z,85.00
2019-05-02T05:17:37.806Z,81.80
2019-05-02T05:20:14.079Z,83.40
2019-05-02T05:22:44.286Z,82.40
2019-05-02T05:25:17.760Z,78.70
2019-05-02T05:27:47.877Z,77.50
2019-05-02T05:30:18.729Z,74.90
2019-05-02T05:32:49.016Z,74.00
2019-05-02T05:35:19.208Z,72.70
2019-05-02T05:37:53.030Z,73.00
2019-05-02T05:40:22.698Z,73.90
2019-05-02T05:42:53.047Z,76.90
2019-05-02T05:45:23.295Z,82.40
2019-05-02T05:47:57.591Z,85.60
2019-05-02T05:50:27.482Z,86.20
2019-05-02T05:52:59.297Z,88.80
2019-05-02T05:55:31.542Z,87.50
2019-05-02T05:58:11.821Z,90.60
2019-05-02T06:00:32.446Z,86.90
2019-05-02T06:03:13.169Z,86.50
2019-05-02T06:05:38.454Z,87.20
2019-05-02T06:08:08.556Z,87.40
2019-05-02T06:10:43.926Z,84.50
2019-05-02T06:13:12.971Z,84.30
2019-05-02T06:15:45.840Z,85.70
2019-05-02T06:18:14.933Z,84.70
2019-05-02T06:20:45.129Z,85.50
2019-05-02T06:23:15.374Z,84.00
2019-05-02T06:25:45.616Z,82.90
2019-05-02T06:28:15.784Z,83.70
2019-05-02T06:30:45.951Z,85.30
2019-05-02T06:33:16.277Z,85.80
2019-05-02T06:35:46.507Z,84.10
2019-05-02T06:38:21.606Z,85.30
2019-05-02T06:40:48.782Z,84.00
2019-05-02T06:43:19.015Z,84.40
2019-05-02T06:45:49.180Z,82.60
2019-05-02T06:48:19.345Z,82.40
2019-05-02T06:50:49.641Z,85.90
2019-05-02T06:53:19.792Z,84.30
2019-05-02T06:55:50.029Z,85.60
2019-05-02T06:58:20.271Z,86.20
2019-05-02T07:00:58.202Z,85.80
2019-05-02T07:03:22.295Z,87.40
2019-05-02T07:05:52.490Z,87.30
2019-05-02T07:08:22.567Z,85.90
2019-05-02T07:10:55.884Z,82.60
2019-05-02T07:13:24.723Z,82.80
2019-05-02T07:15:56.549Z,83.10
2019-05-02T07:18:28.291Z,81.00
2019-05-02T07:20:58.439Z,84.10
2019-05-02T07:23:28.532Z,82.30
2019-05-02T07:26:00.458Z,81.60
2019-05-02T07:28:30.531Z,81.40
2019-05-02T07:31:00.941Z,82.10
2019-05-02T07:33:32.193Z,79.20
2019-05-02T07:36:03.037Z,81.50
2019-05-02T07:38:33.209Z,81.40
2019-05-02T07:41:03.457Z,81.10
2019-05-02T07:43:36.645Z,80.20
2019-05-02T07:46:06.949Z,78.00
2019-05-02T07:48:37.059Z,77.60
2019-05-02T07:51:07.293Z,80.20
2019-05-02T07:53:37.470Z,77.20
2019-05-02T07:56:07.691Z,79.50
2019-05-02T07:58:44.233Z,78.20
2019-05-02T08:01:13.454Z,77.70
2019-05-02T08:03:41.590Z,78.20
2019-05-02T08:06:11.819Z,75.30
2019-05-02T08:08:42.146Z,76.80
2019-05-02T08:11:12.458Z,76.60
2019-05-02T08:13:42.634Z,76.40
2019-05-02T08:16:12.846Z,73.80
2019-05-02T08:18:43.014Z,72.60
2019-05-02T08:21:13.176Z,71.30
2019-05-02T08:23:43.420Z,73.30
2019-05-02T08:26:16.314Z,74.10
2019-05-02T08:28:53.272Z,72.50
2019-05-02T08:31:23.558Z,74.10
2019-05-02T08:33:53.811Z,72.30
2019-05-02T08:36:23.977Z,72.20
2019-05-02T08:38:55.479Z,73.30
2019-05-02T08:41:25.773Z,72.90
2019-05-02T08:43:56.004Z,72.70
2019-05-02T08:46:26.167Z,78.70
2019-05-02T08:48:56.339Z,73.00
2019-05-02T08:51:26.582Z,71.60
2019-05-02T08:53:58.422Z,72.90
2019-05-02T08:56:28.602Z,72.10
2019-05-02T08:58:58.831Z,71.50
2019-05-02T09:01:35.161Z,70.50
2019-05-02T09:04:00.741Z,71.80
2019-05-02T09:06:30.902Z,72.30
2019-05-02T09:09:01.136Z,78.00
2019-05-02T09:11:32.810Z,75.00
2019-05-02T09:14:03.059Z,76.60
2019-05-02T09:16:33.234Z,74.00
2019-05-02T09:19:03.480Z,73.20
2019-05-02T09:21:35.936Z,71.60
2019-05-02T09:24:08.460Z,71.30
2019-05-02T09:26:38.756Z,74.50
2019-05-02T09:29:10.079Z,73.60
2019-05-02T09:31:42.227Z,71.40
2019-05-02T09:34:12.174Z,70.10
2019-05-02T09:36:42.407Z,73.20
2019-05-02T09:39:12.630Z,72.70
2019-05-02T09:41:42.761Z,74.20
2019-05-02T09:44:14.601Z,73.40
2019-05-02T09:46:47.500Z,71.70
2019-05-02T09:49:16.677Z,70.00
2019-05-02T09:51:50.315Z,68.60
2019-05-02T09:54:18.715Z,71.70
2019-05-02T09:56:48.907Z,70.70
2019-05-02T09:59:27.694Z,71.10
2019-05-02T10:01:52.785Z,71.40
2019-05-02T10:04:22.971Z,74.60
2019-05-02T10:06:53.227Z,72.40
2019-05-02T10:09:27.131Z,69.10
2019-05-02T10:11:55.468Z,69.50
2019-05-02T10:14:25.733Z,72.50
2019-05-02T10:16:57.643Z,67.80
2019-05-02T10:19:27.769Z,72.10
2019-05-02T10:21:57.975Z,70.60
2019-05-02T10:24:28.082Z,67.30
2019-05-02T10:27:04.014Z,66.40
2019-05-02T10:29:32.691Z,69.60
2019-05-02T10:32:01.927Z,68.60
2019-05-02T10:34:32.982Z,71.10
2019-05-02T10:37:03.410Z,62.40
2019-05-02T10:39:37.698Z,62.60
2019-05-02T10:42:05.413Z,64.70
2019-05-02T10:44:36.578Z,64.50
2019-05-02T10:47:07.043Z,63.80
2019-05-02T10:49:38.844Z,67.00
2019-05-02T10:52:09.069Z,62.60
2019-05-02T10:54:42.047Z,57.80
2019-05-02T10:57:13.243Z,62.80
2019-05-02T10:59:43.412Z,64.80
2019-05-02T11:02:24.183Z,65.60
2019-05-02T11:04:56.070Z,62.40
2019-05-02T11:07:26.559Z,61.20
2019-05-02T11:10:03.114Z,59.30
2019-05-02T11:12:43.441Z,60.00
2019-05-02T11:15:07.833Z,68.60
2019-05-02T11:17:39.552Z,66.30
2019-05-02T11:20:12.388Z,65.90
2019-05-02T11:22:42.808Z,63.10
2019-05-02T11:25:13.254Z,65.70
2019-05-02T11:27:43.418Z,62.20
2019-05-02T11:30:16.897Z,61.60
2019-05-02T11:32:45.631Z,60.40
2019-05-02T11:35:15.906Z,60.60
2019-05-02T11:37:46.051Z,64.20
2019-05-02T11:40:16.392Z,62.20
2019-05-02T11:42:47.832Z,65.60
2019-05-02T11:45:17.974Z,60.60
2019-05-02T11:47:48.170Z,58.40
2019-05-02T11:50:18.450Z,58.70
2019-05-02T11:52:48.684Z,59.80
2019-05-02T11:55:23.363Z,63.20
2019-05-02T11:57:52.368Z,63.00
2019-05-02T12:00:22.686Z,62.90
2019-05-02T12:03:09.165Z,61.50
2019-05-02T12:05:41.968Z,59.40
2019-05-02T12:08:12.428Z,58.90
2019-05-02T12:10:42.670Z,58.80
2019-05-02T12:13:16.046Z,59.20
2019-05-02T12:15:44.863Z,60.90
2019-05-02T12:18:14.942Z,57.30
2019-05-02T12:20:45.235Z,56.30
2019-05-02T12:23:16.462Z,57.70
2019-05-02T12:25:46.775Z,56.70
2019-05-02T12:28:17.039Z,55.30
2019-05-02T12:30:47.449Z,56.10
2019-05-02T12:33:18.758Z,55.10
2019-05-02T12:35:48.974Z,55.60
2019-05-02T12:38:19.187Z,55.30
2019-05-02T12:40:49.420Z,55.50
2019-05-02T12:43:19.514Z,56.00
2019-05-02T12:45:49.631Z,56.40
2019-05-02T12:48:21.780Z,56.30
2019-05-02T12:50:52.745Z,56.60
2019-05-02T12:53:23.211Z,54.20
2019-05-02T12:55:53.443Z,53.00
2019-05-02T12:58:23.800Z,52.50
2019-05-02T13:00:54.251Z,52.90
2019-05-02T13:03:37.982Z,53.30
2019-05-02T13:06:08.184Z,51.60
2019-05-02T13:08:52.098Z,52.20
2019-05-02T13:11:45.717Z,52.50
2019-05-02T13:14:19.479Z,51.20
2019-05-02T13:16:47.863Z,52.60
2019-05-02T13:19:18.102Z,52.20
2019-05-02T13:21:54.692Z,56.90
2019-05-02T13:24:35.497Z,51.90
2019-05-02T13:27:07.735Z,50.00
2019-05-02T13:29:38.155Z,49.50
2019-05-02T13:32:16.960Z,52.20
2019-05-02T13:34:48.706Z,51.20
2019-05-02T13:37:19.403Z,49.70
2019-05-02T13:40:07.091Z,51.10
2019-05-02T13:42:37.328Z,52.30
2019-05-02T13:45:16.228Z,50.80
2019-05-02T13:47:46.455Z,49.60
2019-05-02T13:50:17.003Z,50.30
2019-05-02T13:52:53.159Z,52.10
2019-05-02T13:55:20.794Z,51.60
2019-05-02T13:57:52.839Z,48.50
2019-05-02T14:00:27.429Z,49.60
2019-05-02T14:02:57.565Z,49.80
2019-05-02T14:05:27.791Z,51.40
2019-05-02T14:08:15.503Z,50.20
2019-05-02T14:10:50.014Z,51.60
2019-05-02T14:13:22.060Z,50.30
2019-05-02T14:15:53.069Z,49.40
2019-05-02T14:18:28.678Z,45.90
2019-05-02T14:20:55.147Z,46.90
2019-05-02T14:23:27.176Z,47.60
2019-05-02T14:25:57.253Z,46.00
2019-05-02T14:28:32.336Z,48.10
2019-05-02T14:30:59.103Z,47.00
2019-05-02T14:33:33.034Z,48.10
2019-05-02T14:36:03.410Z,45.50
2019-05-02T14:38:33.792Z,46.60
2019-05-02T14:41:05.744Z,47.80
2019-05-02T14:43:53.273Z,45.50
2019-05-02T14:46:28.806Z,48.40
2019-05-02T14:48:58.024Z,49.20
2019-05-02T14:51:28.359Z,48.60
2019-05-02T14:54:06.123Z,50.20
2019-05-02T14:56:32.874Z,47.10
2019-05-02T14:59:03.408Z,46.70
2019-05-02T15:01:34.808Z,46.60
2019-05-02T15:04:08.261Z,44.80
2019-05-02T15:06:38.438Z,47.30
2019-05-02T15:09:12.084Z,45.60
2019-05-02T15:11:46.010Z,45.90
2019-05-02T15:14:19.719Z,45.40
2019-05-02T15:16:49.783Z,46.90
2019-05-02T15:19:21.786Z,50.00
2019-05-02T15:21:56.001Z,47.40
2019-05-02T15:24:27.631Z,49.40
2019-05-02T15:26:56.974Z,48.80
2019-05-02T15:29:27.497Z,51.50
2019-05-02T15:32:05.808Z,50.60
2019-05-02T15:34:52.479Z,48.60
2019-05-02T15:37:25.740Z,48.00
2019-05-02T15:42:26.712Z,50.20
2019-05-02T15:45:02.178Z,50.10
2019-05-02T15:47:31.927Z,47.90
2019-05-02T15:50:03.005Z,48.80
2019-05-02T15:52:38.791Z,49.20
2019-05-02T15:55:11.491Z,50.60
2019-05-02T15:57:45.487Z,51.60
2019-05-02T16:00:22.983Z,51.30
2019-05-02T16:02:51.706Z,50.60
2019-05-02T16:05:23.822Z,51.30
2019-05-02T16:08:05.322Z,50.90
2019-05-02T16:10:25.637Z,53.90
2019-05-02T16:12:56.060Z,55.30
2019-05-02T16:15:27.975Z,53.90
2019-05-02T16:18:03.893Z,52.70
2019-05-02T16:20:40.669Z,53.30
2019-05-02T16:23:09.472Z,52.60
2019-05-02T16:25:39.818Z,51.10
2019-05-02T16:28:12.705Z,50.70
2019-05-02T16:30:47.631Z,47.50
2019-05-02T16:33:19.663Z,44.80
2019-05-02T16:35:52.821Z,42.40
2019-05-02T16:38:22.229Z,43.40
2019-05-02T16:40:52.760Z,48.20
2019-05-02T16:43:24.831Z,51.90
2019-05-02T16:45:56.154Z,54.60
2019-05-02T16:48:32.351Z,57.10
2019-05-02T16:50:59.231Z,59.30
2019-05-02T16:53:31.051Z,61.20
2019-05-02T16:56:05.517Z,61.30
2019-05-02T16:58:33.705Z,61.60
2019-05-02T17:01:05.068Z,60.40
2019-05-02T17:03:35.385Z,59.00
2019-05-02T17:06:05.748Z,54.50
2019-05-02T17:08:41.870Z,51.10
2019-05-02T17:11:22.878Z,50.30
2019-05-02T17:13:53.225Z,50.50
2019-05-02T17:16:23.434Z,50.70
2019-05-02T17:18:56.531Z,49.20
2019-05-02T17:21:26.883Z,50.50
2019-05-02T17:23:57.468Z,52.80
2019-05-02T17:26:27.631Z,56.00
2019-05-02T17:28:57.866Z,59.30
2019-05-02T17:31:28.047Z,63.50
2019-05-02T17:33:59.739Z,67.00
2019-05-02T17:36:30.611Z,67.10
2019-05-02T17:39:06.436Z,67.60
2019-05-02T17:41:37.061Z,68.30
2019-05-02T17:44:07.215Z,69.30
2019-05-02T17:46:39.290Z,69.90
2019-05-02T17:49:09.259Z,70.70
2019-05-02T17:51:49.676Z,71.30
2019-05-02T17:54:22.726Z,72.40
2019-05-02T17:56:52.291Z,72.70
2019-05-02T17:59:23.557Z,72.20
2019-05-02T18:01:53.859Z,72.60
2019-05-02T18:04:24.088Z,72.80
2019-05-02T18:06:55.258Z,72.90
2019-05-02T18:09:26.283Z,73.60
2019-05-02T18:11:57.922Z,74.60
2019-05-02T18:14:28.180Z,75.00
2019-05-02T18:16:58.383Z,76.30
2019-05-02T18:19:28.566Z,75.30
2019-05-02T18:22:03.546Z,74.00
2019-05-02T18:24:32.690Z,74.60
2019-05-02T18:27:02.588Z,74.10
2019-05-02T18:29:36.351Z,73.10
2019-05-02T18:32:04.583Z,73.20
2019-05-02T18:34:34.777Z,73.70
2019-05-02T18:37:06.260Z,74.40
2019-05-02T18:39:45.490Z,74.70
2019-05-02T18:42:08.479Z,75.40
2019-05-02T18:44:38.742Z,76.00
2019-05-02T18:47:12.474Z,76.80
2019-05-02T18:49:41.858Z,77.70
2019-05-02T18:52:13.296Z,77.50
2019-05-02T18:54:47.284Z,78.00
2019-05-02T18:57:17.050Z,78.10
2019-05-02T18:59:47.170Z,78.60
2019-05-02T19:02:18.341Z,79.00
2019-05-02T19:04:48.689Z,79.30
2019-05-02T19:07:29.907Z,79.80
2019-05-02T19:09:51.888Z,79.10
2019-05-02T19:12:26.041Z,79.60
2019-05-02T19:14:57.564Z,80.20
2019-05-02T19:17:27.671Z,79.20
2019-05-02T19:19:57.976Z,79.10
2019-05-02T19:22:28.185Z,78.00
2019-05-02T19:25:01.099Z,78.60
2019-05-02T19:27:47.714Z,78.80
2019-05-02T19:30:18.887Z,76.20
2019-05-02T19:32:49.161Z,76.40
2019-05-02T19:35:19.358Z,75.50
2019-05-02T19:37:49.640Z,75.80
2019-05-02T19:40:26.890Z,75.10
2019-05-02T19:42:57.252Z,74.90
2019-05-02T19:45:26.613Z,74.50
2019-05-02T19:47:57.792Z,73.90
2019-05-02T19:50:38.524Z,74.40
2019-05-02T19:53:04.396Z,74.10
2019-05-02T19:55:35.694Z,74.70
2019-05-02T19:58:06.616Z,73.70
2019-05-02T20:00:42.307Z,74.10
2019-05-02T20:03:13.590Z,74.10
2019-05-02T20:05:42.766Z,74.90
2019-05-02T20:08:14.678Z,74.80
2019-05-02T20:10:49.415Z,75.10
2019-05-02T20:13:20.271Z,75.70
2019-05-02T20:16:04.023Z,75.40
2019-05-02T20:18:36.739Z,75.60
2019-05-02T20:21:12.231Z,76.30
2019-05-02T20:23:43.238Z,76.70
2019-05-02T20:26:15.467Z,76.60
2019-05-02T20:28:46.567Z,76.90
2019-05-02T20:31:16.721Z,76.80
2019-05-02T20:33:46.799Z,77.00
2019-05-02T20:36:17.067Z,76.80
2019-05-02T20:38:47.138Z,77.10
2019-05-02T20:41:17.314Z,77.70
2019-05-02T20:43:47.462Z,77.00
2019-05-02T20:46:17.790Z,77.00
2019-05-02T20:48:49.078Z,76.30
2019-05-02T20:51:19.303Z,76.20
2019-05-02T20:53:49.441Z,75.70
2019-05-02T20:56:19.614Z,75.90
2019-05-02T20:58:49.875Z,75.10
2019-05-02T21:01:21.581Z,75.40
2019-05-02T21:03:52.108Z,75.10
2019-05-02T21:06:38.602Z,74.80
2019-05-02T21:09:38.822Z,75.00
2019-05-02T21:12:09.084Z,74.80
2019-05-02T21:14:39.383Z,74.40
2019-05-02T21:17:09.538Z,74.30
2019-05-02T21:19:41.679Z,73.60
2019-05-02T21:22:17.573Z,73.70
2019-05-02T21:24:47.824Z,74.00
2019-05-02T21:27:17.998Z,73.70
2019-05-02T21:29:49.056Z,73.50
2019-05-02T21:32:19.271Z,73.80
2019-05-02T21:34:49.454Z,74.30
2019-05-02T21:37:19.678Z,74.40
2019-05-02T21:39:51.892Z,74.80
2019-05-02T21:42:22.559Z,74.80
2019-05-02T21:44:54.568Z,75.20
2019-05-02T21:47:24.623Z,76.30
2019-05-02T21:50:02.211Z,77.40
2019-05-02T21:52:49.886Z,77.30
2019-05-02T21:55:27.237Z,77.80
2019-05-02T21:57:57.512Z,77.90
2019-05-02T22:00:45.985Z,77.90
2019-05-02T22:03:16.311Z,78.50
2019-05-02T22:05:47.515Z,78.60
2019-05-02T22:08:17.770Z,79.10
2019-05-02T22:10:48.050Z,79.40
2019-05-02T22:13:18.211Z,79.40
2019-05-02T22:15:48.285Z,79.60
2019-05-02T22:18:18.507Z,80.60
2019-05-02T22:20:48.584Z,80.10
2019-05-02T22:23:18.829Z,80.20
2019-05-02T22:25:49.043Z,80.30
2019-05-02T22:28:19.191Z,80.50
2019-05-02T22:30:49.346Z,80.90
2019-05-02T22:33:19.561Z,81.40
2019-05-02T22:35:49.807Z,81.30
2019-05-02T22:38:27.356Z,81.40
2019-05-02T22:40:58.980Z,81.30
2019-05-02T22:43:29.067Z,82.00
2019-05-02T22:45:59.355Z,81.50
2019-05-02T22:48:29.441Z,81.80
2019-05-02T22:50:59.613Z,81.80
2019-05-02T22:53:29.833Z,82.00
2019-05-02T22:55:59.987Z,81.60
2019-05-02T22:58:30.082Z,81.20
2019-05-02T23:01:01.650Z,80.30
2019-05-02T23:03:32.723Z,81.60
2019-05-02T23:06:02.967Z,79.60
2019-05-02T23:08:33.118Z,80.40
2019-05-02T23:11:03.562Z,80.90
2019-05-02T23:13:33.806Z,82.70
2019-05-02T23:16:03.943Z,82.10
2019-05-02T23:18:33.965Z,81.80
2019-05-02T23:21:04.375Z,82.10
2019-05-02T23:23:34.595Z,82.00
2019-05-02T23:26:06.749Z,82.10
2019-05-02T23:28:38.611Z,82.10
2019-05-02T23:31:08.815Z,83.00
2019-05-02T23:33:56.599Z,82.80
2019-05-02T23:36:26.755Z,82.30
2019-05-02T23:38:57.035Z,81.20
2019-05-02T23:41:27.454Z,81.00
2019-05-02T23:43:57.859Z,81.10
2019-05-02T23:46:27.865Z,82.70
2019-05-02T23:48:58.156Z,83.10
2019-05-02T23:51:28.283Z,82.10
2019-05-02T23:53:58.521Z,83.00
2019-05-02T23:56:28.722Z,82.80
2019-05-02T23:58:58.958Z,82.50
